Latest Weather Observations for Mount Crawford

IDS60801

Issued at 8:11 am CDT Wednesday 23 October 2019 (issued every 10 minutes, with the page automatically refreshed every 10 minutes)

About weather observations | Map of weather stations | Latest weather observations for SA | Other Formats
Station Details ID: 023878 Name: MOUNT CRAWFORD AWS Lat: -34.73 Lon: 138.93 Height: 525.0 m
Data from the previous 72 hours. | See also: Recent months at Mount Crawford
Date/Time
CDT
Temp
°C
App
Temp
°C
Dew
Point
°C
Rel
Hum
%
Delta-T
°C
Wind Press
QNH
hPa
Press
MSL
hPa
Rain since
9am
mm
Dir  Spd
km/h
Gust
km/h
Spd
kts
Gust
kts
23/08:00am 21.1 16.6 1.9 28 9.1 NE 15 19 8 10 1021.0 1020.4 0.0
23/07:30am 20.3 15.5 0.2 26 9.2 NE 15 20 8 11 1020.9 1020.3 0.0
23/07:00am 20.0 14.7 -0.6 25 9.3 NE 17 22 9 12 1020.8 1020.2 0.0
23/06:30am 19.0 13.3 -0.9 26 8.8 NE 19 22 10 12 1020.4 1019.8 0.0
23/06:00am 18.3 12.4 -0.5 28 8.3 ENE 20 24 11 13 1020.1 1019.5 0.0
23/05:30am 17.7 11.5 -0.1 30 7.9 ENE 22 28 12 15 1020.0 1019.4 0.0
23/05:00am 17.2 11.5 0.8 33 7.4 ENE 20 26 11 14 1019.9 1019.3 0.0
23/04:30am 17.0 11.1 1.4 35 7.1 E 22 30 12 16 1019.9 1019.3 0.0
23/04:00am 17.2 10.9 1.6 35 7.2 E 24 28 13 15 1020.0 1019.4 0.0
23/03:30am 17.2 10.9 1.6 35 7.1 E 24 32 13 17 1020.1 1019.5 0.0
23/03:00am 16.8 11.1 2.8 39 6.5 E 22 28 12 15 1020.4 1019.8 0.0
23/02:30am 16.7 11.0 2.7 39 6.5 E 22 28 12 15 1020.5 1019.9 0.0
23/02:00am 16.9 11.1 2.1 37 6.8 E 22 26 12 14 1020.8 1020.2 0.0
23/01:30am 16.9 11.1 2.1 37 6.8 ESE 22 28 12 15 1021.3 1020.6 0.0
23/01:00am 16.5 10.1 1.0 35 7.0 ESE 24 28 13 15 1021.5 1020.9 0.0
23/12:30am 16.5 10.0 0.2 33 7.2 E 24 30 13 16 1021.7 1021.1 0.0
23/12:00am 17.3 10.6 -0.9 29 7.9 ESE 24 30 13 16 1021.7 1021.1 0.0
 
Date/Time
CDT
Temp
°C
App
Temp
°C
Dew
Point
°C
Rel
Hum
%
Delta-T
°C
Wind Press
QNH
hPa
Press
MSL
hPa
Rain since
9am
mm
Dir  Spd
km/h
Gust
km/h
Spd
kts
Gust
kts
22/11:30pm 17.5 10.3 -1.7 27 8.2 ESE 26 32 14 17 1021.8 1021.2 0.0
22/11:00pm 17.6 11.0 -0.2 30 7.9 ESE 24 30 13 16 1022.1 1021.5 0.0
22/10:30pm 18.0 11.5 0.6 31 7.8 SE 24 30 13 16 1022.4 1021.8 0.0
22/10:00pm 18.4 11.2 1.0 31 8.0 SE 28 37 15 20 1022.2 1021.6 0.0
22/09:30pm 18.2 11.6 2.1 34 7.5 SE 26 32 14 17 1022.2 1021.6 0.0
22/09:00pm 19.2 13.0 2.1 32 8.0 SE 24 30 13 16 1022.0 1021.4 0.0
22/08:30pm 19.5 14.0 1.9 31 8.2 SE 20 28 11 15 1021.8 1021.2 0.0
22/08:00pm 20.9 15.4 1.7 28 9.1 SSE 20 30 11 16 1021.4 1020.8 0.0
22/07:30pm 22.0 16.7 1.6 26 9.7 SSE 19 24 10 13 1021.3 1020.6 0.0
22/07:00pm 23.6 19.1 2.4 25 10.4 SSE 15 20 8 11 1021.3 1020.6 0.0
22/06:30pm 24.4 20.6 3.7 26 10.4 SSE 13 19 7 10 1021.2 1020.5 0.0
22/06:00pm 25.1 21.3 3.7 25 10.8 SSE 13 19 7 10 1021.2 1020.5 0.0
22/05:30pm 25.2 21.1 4.3 26 10.7 SSW 15 24 8 13 1021.2 1020.5 0.0
22/05:00pm 25.6 21.7 3.6 24 11.1 S 13 20 7 11 1021.0 1020.4 0.0
22/04:30pm 25.6 21.8 4.1 25 11.0 SSW 13 26 7 14 1021.5 1020.9 0.0
22/04:00pm 25.0 20.8 1.8 22 11.3 S 13 28 7 15 1021.8 1021.2 0.0
22/03:30pm 25.2 21.4 2.0 22 11.4 SW 11 20 6 11 1021.9 1021.3 0.0
22/03:00pm 25.7 22.2 5.3 27 10.6 SSE 13 19 7 10 1022.3 1021.7 0.0
22/02:30pm 26.0 22.5 1.3 20 12.0 NW 9 17 5 9 1022.8 1022.2 0.0
22/02:00pm 25.3 21.4 1.4 21 11.6 WNW 11 19 6 10 1023.4 1022.8 0.0
22/01:30pm 25.8 22.6 4.9 26 10.8 NW 11 19 6 10 1023.6 1023.0 0.0
22/01:00pm 25.6 23.0 4.1 25 11.0 NW 7 15 4 8 1023.8 1023.2 0.0
22/12:30pm 25.2 22.5 3.8 25 10.8 NW 7 13 4 7 1024.3 1023.7 0.0
22/12:00pm 24.1 20.3 1.7 23 10.8 NE 11 17 6 9 1024.6 1024.0 0.0
22/11:30am 23.6 20.8 3.0 26 10.1 NNW 7 17 4 9 1024.8 1024.3 0.0
22/11:00am 22.8 20.0 1.8 25 10.1 W 6 11 3 6 1025.0 1024.5 0.0
22/10:30am 22.4 19.2 3.0 28 9.5 N 9 13 5 7 1025.3 1024.7 0.0
22/10:00am 21.3 17.7 4.8 34 8.3 NE 13 17 7 9 1025.3 1024.7 0.0
22/09:30am 20.2 16.9 4.7 36 7.7 ENE 11 13 6 7 1025.4 1024.8 0.0
22/09:00am 18.6 14.8 4.0 38 7.1 ENE 13 17 7 9 1025.3 1024.7 0.0
22/08:30am 17.2 13.4 3.8 41 6.4 ENE 13 19 7 10 1025.2 1024.6 0.0
22/08:00am 16.8 13.1 4.5 44 6.0 ENE 13 19 7 10 1025.0 1024.5 0.0
22/07:30am 15.4 11.1 3.5 45 5.6 ENE 15 20 8 11 1024.9 1024.4 0.0
22/07:00am 14.2 9.2 3.4 48 5.0 ENE 19 24 10 13 1024.5 1023.9 0.0
22/06:30am 13.6 8.4 3.4 50 4.7 ENE 20 28 11 15 1024.0 1023.4 0.0
22/06:00am 13.5 7.9 3.3 50 4.7 ENE 22 28 12 15 1023.8 1023.2 0.0
22/05:30am 13.7 8.0 2.9 48 4.9 ENE 22 28 12 15 1023.7 1023.1 0.0
22/05:00am 13.8 8.2 3.3 49 4.9 ENE 22 30 12 16 1023.7 1023.1 0.0
22/04:30am 13.4 8.2 3.8 52 4.5 ENE 20 26 11 14 1023.6 1023.0 0.0
22/04:00am 13.7 8.1 3.5 50 4.7 E 22 30 12 16 1023.6 1023.0 0.0
22/03:30am 14.1 8.5 3.6 49 4.9 E 22 32 12 17 1023.7 1023.1 0.0
22/03:00am 13.8 7.8 3.6 50 4.7 E 24 28 13 15 1023.8 1023.2 0.0
22/02:30am 13.0 7.5 4.2 55 4.1 E 22 26 12 14 1024.1 1023.5 0.0
22/02:00am 13.2 7.8 4.6 56 4.1 E 22 26 12 14 1024.3 1023.7 0.0
22/01:30am 13.3 7.7 5.2 58 3.9 E 24 28 13 15 1024.7 1024.2 0.0
22/01:00am 13.5 8.3 5.7 59 3.8 ESE 22 26 12 14 1024.9 1024.4 0.0
22/12:30am 13.3 8.2 5.9 61 3.6 E 22 26 12 14 1025.2 1024.6 0.0
22/12:00am 13.7 8.2 6.1 60 3.7 ESE 24 30 13 16 1025.3 1024.7 0.0
 
Date/Time
CDT
Temp
°C
App
Temp
°C
Dew
Point
°C
Rel
Hum
%
Delta-T
°C
Wind Press
QNH
hPa
Press
MSL
hPa
Rain since
9am
mm
Dir  Spd
km/h
Gust
km/h
Spd
kts
Gust
kts
21/11:30pm 13.9 8.5 6.3 60 3.7 ESE 24 28 13 15 1025.5 1024.9 0.0
21/11:00pm 13.7 8.4 6.6 62 3.5 ESE 24 30 13 16 1025.6 1025.0 0.0
21/10:30pm 14.1 8.4 6.7 61 3.7 SE 26 32 14 17 1025.8 1025.2 0.0
21/10:00pm 14.7 8.9 6.3 57 4.2 SE 26 32 14 17 1025.8 1025.2 0.0
21/09:30pm 14.7 8.9 4.4 50 4.9 SE 24 32 13 17 1025.6 1025.0 0.0
21/09:00pm 15.5 9.9 3.6 45 5.6 SE 22 30 12 16 1025.7 1025.1 0.0
21/08:30pm 16.1 10.8 2.9 41 6.1 SE 20 28 11 15 1025.6 1025.0 0.0
21/08:00pm 16.8 11.8 3.8 42 6.2 SE 19 26 10 14 1025.4 1024.8 0.0
21/07:30pm 17.9 13.1 4.5 41 6.5 SSE 19 22 10 12 1025.2 1024.6 0.0
21/07:00pm 19.0 14.5 4.4 38 7.2 SSE 17 22 9 12 1025.3 1024.7 0.0
21/06:30pm 19.4 15.1 5.1 39 7.1 SSE 17 24 9 13 1025.2 1024.6 0.0
21/06:00pm 20.9 18.0 4.5 34 8.2 S 9 13 5 7 1025.0 1024.5 0.0
21/05:30pm 21.4 18.9 4.0 32 8.6 S 6 9 3 5 1025.0 1024.5 0.0
21/05:00pm 22.0 17.8 3.6 30 9.1 ESE 15 20 8 11 1024.9 1024.4 0.0
21/04:30pm 22.7 20.0 5.6 33 8.8 S 9 13 5 7 1025.0 1024.5 0.0
21/04:00pm 22.1 19.6 4.7 32 8.8 SSW 7 15 4 8 1025.3 1024.7 0.0
21/03:30pm 22.6 19.6 2.1 26 9.9 ENE 7 11 4 6 1025.4 1024.8 0.0
21/03:00pm 22.1 18.4 2.2 27 9.5 NE 11 15 6 8 1026.0 1025.4 0.0
21/02:30pm 22.0 19.0 5.8 35 8.3 WNW 11 19 6 10 1026.2 1025.6 0.0
21/02:00pm 20.9 17.5 1.7 28 9.1 NE 9 15 5 8 1026.5 1026.0 0.0
21/01:30pm 21.1 17.9 0.9 26 9.4 NNW 7 11 4 6 1026.8 1026.3 0.0
21/01:00pm 20.0 16.4 4.9 37 7.6 W 13 19 7 10 1026.9 1026.4 0.0
21/12:30pm 19.9 17.1 5.2 38 7.3 NNW 9 15 5 8 1027.3 1026.7 0.0
21/12:00pm 19.0 15.7 4.7 39 7.0 NW 11 17 6 9 1027.6 1027.0 0.0
21/11:30am 18.9 16.6 7.4 47 6.0 N 9 13 5 7 1027.7 1027.1 0.0
21/11:00am 17.1 14.4 7.5 53 5.0 N 11 17 6 9 1027.9 1027.3 0.0
21/10:30am 16.0 13.4 7.7 58 4.2 ENE 11 15 6 8 1028.1 1027.6 0.0
21/10:00am 14.9 11.9 7.9 63 3.6 NE 13 17 7 9 1028.3 1027.8 0.0
21/09:30am 13.7 9.9 7.7 67 3.0 NE 17 20 9 11 1028.3 1027.8 0.0
21/09:00am 12.2 8.3 7.3 72 2.4 ENE 17 20 9 11 1028.2 1027.7 0.0
21/08:30am 10.6 6.5 6.4 75 2.0 ENE 17 24 9 13 1028.2 1027.7 0.0
21/08:00am 9.3 5.4 5.5 77 1.8 ENE 15 20 8 11 1028.0 1027.5 0.0
21/07:30am 8.1 4.6 5.4 83 1.2 ENE 13 19 7 10 1027.8 1027.2 0.0
21/07:00am 6.9 2.9 5.1 88 0.8 E 15 20 8 11 1027.6 1027.0 0.0
21/06:30am 5.6 1.5 4.4 92 0.5 E 15 19 8 10 1027.1 1026.6 0.0
21/06:00am 5.9 1.5 4.9 93 0.4 E 17 20 9 11 1027.0 1026.5 0.0
21/05:30am 5.4 0.4 4.4 93 0.4 ESE 20 22 11 12 1026.9 1026.4 0.0
21/05:00am 5.8 0.8 4.4 91 0.6 ESE 20 22 11 12 1027.0 1026.5 0.0
21/04:30am 5.8 0.8 4.6 92 0.5 ESE 20 24 11 13 1026.9 1026.4 0.0
21/04:00am 6.0 0.7 4.8 92 0.5 E 22 26 12 14 1026.6 1026.1 0.0
21/03:30am 5.3 -0.1 4.6 95 0.3 E 22 28 12 15 1026.3 1025.8 0.0
21/03:00am 5.8 0.1 5.1 95 0.3 E 24 30 13 16 1026.4 1025.9 0.0
21/02:30am 5.8 -0.7 4.9 94 0.4 ESE 28 33 15 18 1026.4 1025.9 0.0
21/02:00am 5.8 0.1 4.9 94 0.4 ESE 24 30 13 16 1027.0 1026.5 0.0
21/01:30am 6.0 -0.1 5.0 93 0.4 ESE 26 30 14 16 1027.7 1027.1 0.0
21/01:00am 6.3 1.0 5.1 92 0.5 ESE 22 28 12 15 1028.5 1028.0 0.0
21/12:30am 6.4 1.5 5.0 91 0.6 SE 20 28 11 15 1029.0 1028.5 0.0
21/12:00am 6.6 1.3 5.2 91 0.6 SE 22 28 12 15 1029.3 1028.7 0.0
 
Date/Time
CDT
Temp
°C
App
Temp
°C
Dew
Point
°C
Rel
Hum
%
Delta-T
°C
Wind Press
QNH
hPa
Press
MSL
hPa
Rain since
9am
mm
Dir  Spd
km/h
Gust
km/h
Spd
kts
Gust
kts
20/11:30pm 6.9 1.7 5.5 91 0.6 SE 22 30 12 16 1029.0 1028.5 0.0
20/11:00pm 7.0 1.4 5.5 90 0.7 SE 24 32 13 17 1028.9 1028.4 0.0
20/10:30pm 7.2 1.6 5.5 89 0.8 SE 24 33 13 18 1028.9 1028.4 0.0
20/10:00pm 7.5 1.9 5.5 87 0.9 SE 24 32 13 17 1028.9 1028.4 0.0
20/09:30pm 7.8 2.2 5.6 86 1.0 SE 24 33 13 18 1028.6 1028.1 0.0
20/09:00pm 8.1 2.6 5.7 85 1.1 SE 24 33 13 18 1028.4 1027.9 0.0
20/08:30pm 8.7 3.2 5.8 82 1.4 SE 24 35 13 19 1028.0 1027.5 0.0
20/08:00pm 9.5 4.0 5.9 78 1.7 SE 24 30 13 16 1027.8 1027.2 0.0
20/07:30pm 10.6 5.9 6.2 74 2.1 SE 20 26 11 14 1027.6 1027.0 0.0
20/07:00pm 12.1 7.5 6.6 69 2.7 SSE 20 30 11 16 1027.4 1026.8 0.0
20/06:30pm 13.6 9.0 6.7 63 3.4 SE 20 28 11 15 1027.1 1026.6 0.0
20/06:00pm 15.0 10.4 6.6 57 4.2 SE 20 28 11 15 1027.0 1026.5 0.0
20/05:30pm 17.4 14.9 6.6 49 5.5 E 9 15 5 8 1026.8 1026.3 0.0
20/05:00pm 17.7 15.7 6.9 49 5.5 E 7 15 4 8 1026.7 1026.2 0.0
20/04:30pm 17.2 13.5 4.2 42 6.3 ESE 13 20 7 11 1026.8 1026.3 0.0
20/04:00pm 17.3 13.8 5.3 45 5.9 SE 13 20 7 11 1026.9 1026.4 0.0
20/03:30pm 17.5 15.2 7.3 51 5.2 WSW 9 15 5 8 1026.9 1026.4 0.0
20/03:00pm 16.3 13.6 7.3 55 4.6 NW 11 19 6 10 1027.3 1026.7 0.0
20/02:30pm 16.3 13.2 5.6 49 5.3 SSE 11 17 6 9 1027.5 1026.9 0.0
20/02:00pm 15.8 13.2 6.3 53 4.7 WNW 9 19 5 10 1027.7 1027.1 0.0
20/01:30pm 15.0 11.8 6.8 58 4.1 W 13 22 7 12 1027.7 1027.1 0.0
20/01:00pm 14.4 11.9 6.5 59 3.9 WSW 9 13 5 7 1027.8 1027.2 0.0
20/12:30pm 13.5 10.8 5.4 58 3.9 SSE 9 17 5 9 1028.0 1027.5 0.0
20/12:00pm 13.0 10.6 7.0 67 3.0 S 9 17 5 9 1028.1 1027.6 0.0
20/11:30am 12.4 9.5 6.7 68 2.8 S 11 17 6 9 1028.3 1027.8 0.0
20/11:00am 11.1 8.3 5.2 67 2.8 SSW 9 15 5 8 1028.6 1028.1 0.0
20/10:30am 10.7 8.0 5.7 71 2.4 ESE 9 15 5 8 1028.7 1028.2 0.0
20/10:00am 10.3 6.3 4.9 69 2.5 SSE 15 22 8 12 1028.6 1028.1 0.0
20/09:30am 9.8 7.2 6.0 77 1.8 S 9 19 5 10 1028.7 1028.2 0.0
20/09:00am 9.3 6.5 6.9 85 1.2 S 11 19 6 10 1028.6 1028.1 0.0
20/08:30am 8.1 4.8 6.4 89 0.8 SSW 13 17 7 9 1028.5 1028.0 0.0

Other formats

Comma delimited format used in spreadsheet applications
http://www.bom.gov.au/fwo/IDS60801/IDS60801.94678.axf

JavaScript Object Notation format (JSON) in row-major order
http://www.bom.gov.au/fwo/IDS60801/IDS60801.94678.json

Data quality

Most of these data are generated automatically and are frequently updated. Quality checks on data are not normally performed. It is possible for incorrect values to appear. Refer to information at About Latest Weather Observations and please check the disclaimer before using these data.